createdAt,value
2018-12-05T00:01:01.237Z,4.90
2018-12-05T00:03:38.960Z,4.90
2018-12-05T00:06:22.203Z,4.90
2018-12-05T00:08:59.725Z,4.90
2018-12-05T00:11:32.235Z,4.90
2018-12-05T00:14:06.208Z,4.90
2018-12-05T00:16:40.653Z,4.90
2018-12-05T00:19:13.564Z,4.90
2018-12-05T00:21:49.896Z,5.00
2018-12-05T00:24:36.202Z,5.00
2018-12-05T00:27:16.917Z,5.10
2018-12-05T00:29:53.748Z,5.10
2018-12-05T00:32:37.434Z,5.20
2018-12-05T00:35:21.888Z,5.20
2018-12-05T00:37:53.783Z,5.30
2018-12-05T00:40:29.912Z,5.20
2018-12-05T00:43:04.843Z,5.20
2018-12-05T00:45:36.079Z,5.40
2018-12-05T00:48:09.500Z,5.30
2018-12-05T00:50:39.724Z,5.30
2018-12-05T00:53:10.894Z,5.30
2018-12-05T00:55:42.303Z,5.30
2018-12-05T00:58:17.223Z,5.30
2018-12-05T01:00:52.730Z,5.30
2018-12-05T01:03:25.982Z,5.30
2018-12-05T01:06:02.293Z,5.30
2018-12-05T01:08:36.813Z,5.30
2018-12-05T01:11:10.472Z,5.40
2018-12-05T01:13:44.037Z,5.40
2018-12-05T01:18:57.814Z,5.40
2018-12-05T01:21:34.567Z,5.40
2018-12-05T01:24:13.136Z,5.40
2018-12-05T01:29:31.039Z,5.50
2018-12-05T01:32:02.188Z,5.50
2018-12-05T01:34:43.711Z,5.50
2018-12-05T01:37:15.481Z,5.50
2018-12-05T01:40:02.457Z,5.50
2018-12-05T01:42:37.471Z,5.50
2018-12-05T01:45:12.248Z,5.60
2018-12-05T01:47:48.889Z,5.60
2018-12-05T01:50:19.863Z,5.60
2018-12-05T01:52:51.325Z,5.60
2018-12-05T01:55:23.568Z,5.60
2018-12-05T01:57:59.475Z,5.60
2018-12-05T02:00:41.943Z,5.60
2018-12-05T02:06:17.123Z,5.70
2018-12-05T02:11:38.905Z,5.70
2018-12-05T02:14:19.459Z,5.80
2018-12-05T02:16:59.350Z,5.80
2018-12-05T02:19:37.607Z,5.80
2018-12-05T02:22:13.530Z,5.90
2018-12-05T02:24:44.073Z,5.80
2018-12-05T02:27:17.683Z,5.80
2018-12-05T02:29:59.168Z,5.80
2018-12-05T02:32:38.443Z,5.80
2018-12-05T02:35:13.536Z,5.90
2018-12-05T02:37:55.868Z,5.90
2018-12-05T02:43:14.801Z,6.00
2018-12-05T02:45:55.953Z,6.00
2018-12-05T02:51:13.850Z,6.10
2018-12-05T02:54:00.882Z,6.10
2018-12-05T02:56:44.809Z,6.10
2018-12-05T02:59:29.235Z,6.10
2018-12-05T03:02:06.045Z,6.00
2018-12-05T03:04:45.737Z,6.10
2018-12-05T03:07:19.978Z,6.10
2018-12-05T03:10:00.025Z,6.10
2018-12-05T03:15:12.857Z,6.20
2018-12-05T03:17:46.017Z,6.20
2018-12-05T03:20:23.552Z,6.30
2018-12-05T03:22:55.673Z,6.20
2018-12-05T03:25:32.162Z,6.30
2018-12-05T03:28:10.004Z,6.30
2018-12-05T03:30:50.324Z,6.30
2018-12-05T03:36:01.626Z,6.30
2018-12-05T03:38:34.015Z,6.30
2018-12-05T03:41:10.654Z,6.30
2018-12-05T03:43:48.662Z,6.40
2018-12-05T03:46:23.768Z,6.40
2018-12-05T03:48:59.042Z,6.40
2018-12-05T03:51:42.579Z,6.50
2018-12-05T03:59:50.424Z,6.50
2018-12-05T04:02:23.861Z,6.50
2018-12-05T04:05:01.067Z,6.60
2018-12-05T04:07:32.773Z,6.60
2018-12-05T04:10:04.946Z,6.60
2018-12-05T04:12:40.770Z,6.60
2018-12-05T04:23:18.654Z,6.80
2018-12-05T04:28:49.472Z,6.90
2018-12-05T04:31:29.085Z,6.90
2018-12-05T04:36:49.711Z,6.90
2018-12-05T04:42:06.347Z,7.00
2018-12-05T04:44:42.176Z,7.00
2018-12-05T04:47:22.598Z,7.00
2018-12-05T04:52:50.945Z,7.10
2018-12-05T04:55:24.909Z,7.20
2018-12-05T04:58:09.671Z,7.20
2018-12-05T05:03:32.262Z,7.30
2018-12-05T05:06:04.307Z,7.40
2018-12-05T05:08:34.286Z,7.50
2018-12-05T05:11:11.400Z,7.50
2018-12-05T05:13:44.290Z,7.50
2018-12-05T05:16:19.515Z,7.60
2018-12-05T05:18:50.969Z,7.60
2018-12-05T05:21:33.217Z,7.60
2018-12-05T05:24:06.498Z,7.70
2018-12-05T05:26:39.239Z,7.70
2018-12-05T05:29:16.558Z,7.70
2018-12-05T05:31:53.641Z,7.50
2018-12-05T05:34:30.138Z,7.60
2018-12-05T05:37:06.937Z,7.70
2018-12-05T05:39:39.482Z,7.90
2018-12-05T05:42:11.365Z,7.80
2018-12-05T05:44:42.937Z,7.80
2018-12-05T05:47:14.784Z,7.90
2018-12-05T05:49:54.661Z,8.00
2018-12-05T06:01:00.725Z,8.00
2018-12-05T06:03:35.808Z,7.90
2018-12-05T06:06:08.054Z,7.80
2018-12-05T06:11:22.172Z,7.80
2018-12-05T06:13:52.771Z,7.80
2018-12-05T06:19:01.329Z,8.00
2018-12-05T06:21:41.567Z,8.00
2018-12-05T06:24:23.970Z,8.10
2018-12-05T06:47:00.926Z,8.10
2018-12-05T06:49:39.714Z,8.10
2018-12-05T06:57:54.245Z,8.20
2018-12-05T07:34:40.196Z,8.60
2018-12-05T07:37:16.329Z,8.90
2018-12-05T07:40:05.182Z,9.30
2018-12-05T07:45:30.704Z,10.40
2018-12-05T07:48:15.105Z,10.60
2018-12-05T07:50:57.156Z,10.70
2018-12-05T08:07:11.223Z,10.90
2018-12-05T08:12:35.922Z,11.30
2018-12-05T08:15:15.939Z,11.40
2018-12-05T08:20:32.857Z,11.40
2018-12-05T08:23:14.001Z,11.40
2018-12-05T08:25:48.743Z,11.50
2018-12-05T08:31:15.680Z,11.50
2018-12-05T08:33:52.730Z,11.50
2018-12-05T08:36:25.581Z,11.50
2018-12-05T08:39:01.818Z,11.50
2018-12-05T08:41:40.792Z,11.60
2018-12-05T08:44:17.038Z,11.60
2018-12-05T08:49:42.944Z,11.70
2018-12-05T08:52:20.997Z,11.70
2018-12-05T08:57:35.885Z,11.80
2018-12-05T09:00:08.045Z,11.80
2018-12-05T09:02:43.638Z,11.80
2018-12-05T09:05:20.977Z,11.80
2018-12-05T09:07:54.623Z,11.80
2018-12-05T09:10:29.753Z,11.90
2018-12-05T09:15:54.001Z,11.90
2018-12-05T09:18:31.105Z,11.90
2018-12-05T09:26:47.744Z,12.10
2018-12-05T09:29:23.611Z,12.00
2018-12-05T09:31:56.297Z,12.00
2018-12-05T09:34:30.119Z,12.10
2018-12-05T09:37:01.756Z,12.10
2018-12-05T09:39:45.155Z,12.20
2018-12-05T09:42:23.572Z,12.20
2018-12-05T09:45:09.255Z,12.20
2018-12-05T09:47:45.657Z,12.20
2018-12-05T09:50:27.711Z,12.30
2018-12-05T09:53:00.939Z,12.30
2018-12-05T09:58:14.672Z,12.40
2018-12-05T10:00:50.389Z,12.40
2018-12-05T10:06:01.857Z,12.50
2018-12-05T10:11:24.422Z,12.60
2018-12-05T10:14:04.201Z,12.70
2018-12-05T10:24:56.167Z,12.80
2018-12-05T10:27:34.341Z,12.80
2018-12-05T10:30:10.225Z,12.90
2018-12-05T10:32:50.172Z,12.90
2018-12-05T10:38:09.362Z,13.00
2018-12-05T11:21:53.455Z,12.90
2018-12-05T11:32:55.961Z,12.90
2018-12-05T11:38:26.690Z,13.00
2018-12-05T11:52:20.067Z,13.00
2018-12-05T11:55:03.141Z,13.00
2018-12-05T12:17:20.252Z,12.80
2018-12-05T12:19:54.214Z,12.80
2018-12-05T12:22:33.247Z,12.80
2018-12-05T12:25:08.738Z,12.80
2018-12-05T12:27:46.538Z,12.70
2018-12-05T12:30:23.859Z,12.70
2018-12-05T12:32:53.989Z,12.60
2018-12-05T12:35:24.374Z,12.50
2018-12-05T12:37:54.378Z,12.40
2018-12-05T12:40:24.897Z,12.40
2018-12-05T12:42:56.375Z,12.30
2018-12-05T12:45:26.865Z,12.30
2018-12-05T12:48:04.360Z,12.30
2018-12-05T12:50:42.854Z,12.20
2018-12-05T12:53:15.360Z,12.20
2018-12-05T12:55:47.372Z,12.10
2018-12-05T12:58:19.684Z,12.10
2018-12-05T13:00:51.467Z,12.10
2018-12-05T13:04:07.380Z,12.10
2018-12-05T13:06:37.529Z,12.10
2018-12-05T13:09:10.452Z,12.10
2018-12-05T13:11:40.818Z,12.00
2018-12-05T13:14:14.240Z,12.10
2018-12-05T13:16:45.514Z,12.10
2018-12-05T13:19:16.175Z,12.10
2018-12-05T13:21:47.474Z,12.10
2018-12-05T13:24:17.511Z,12.10
2018-12-05T13:26:47.343Z,12.10
2018-12-05T13:29:17.123Z,12.10
2018-12-05T13:31:49.071Z,12.10
2018-12-05T13:34:22.230Z,12.20
2018-12-05T13:36:53.653Z,12.20
2018-12-05T13:39:23.648Z,12.20
2018-12-05T13:41:54.000Z,12.20
2018-12-05T13:44:25.468Z,12.20
2018-12-05T13:46:56.593Z,12.30
2018-12-05T13:49:28.726Z,12.30
2018-12-05T13:51:57.262Z,12.30
2018-12-05T13:54:27.016Z,12.30
2018-12-05T13:56:57.603Z,12.30
2018-12-05T13:59:27.144Z,12.40
2018-12-05T14:01:57.140Z,12.40
2018-12-05T14:04:27.124Z,12.40
2018-12-05T14:06:57.134Z,12.40
2018-12-05T14:09:28.121Z,12.40
2018-12-05T14:12:01.518Z,12.40
2018-12-05T14:14:31.216Z,12.40
2018-12-05T14:17:02.373Z,12.40
2018-12-05T14:19:31.792Z,12.40
2018-12-05T14:22:02.729Z,12.40
2018-12-05T14:24:36.679Z,12.40
2018-12-05T14:27:08.142Z,12.40
2018-12-05T14:29:41.187Z,12.40
2018-12-05T14:32:11.585Z,12.40
2018-12-05T14:34:48.153Z,12.40
2018-12-05T14:37:20.232Z,12.40
2018-12-05T14:39:52.377Z,12.40
2018-12-05T14:42:22.386Z,12.50
2018-12-05T14:44:54.817Z,12.50
2018-12-05T14:47:25.640Z,12.50
2018-12-05T14:49:57.554Z,12.50
2018-12-05T14:59:15.828Z,12.40
2018-12-05T15:01:58.499Z,12.50
2018-12-05T15:04:29.330Z,12.50
2018-12-05T15:07:00.121Z,12.50
2018-12-05T15:09:35.221Z,12.50
2018-12-05T15:30:55.321Z,13.00
2018-12-05T15:33:31.734Z,13.20
2018-12-05T15:36:10.927Z,13.10
2018-12-05T15:38:43.751Z,13.00
2018-12-05T15:41:24.167Z,12.90
2018-12-05T15:52:08.211Z,12.60
2018-12-05T15:57:30.480Z,12.60
2018-12-05T16:00:10.692Z,12.50
2018-12-05T16:02:44.740Z,12.50
2018-12-05T16:05:18.936Z,12.40
2018-12-05T16:11:06.583Z,12.30
2018-12-05T16:16:43.395Z,12.20
2018-12-05T16:22:15.492Z,12.20
2018-12-05T16:24:51.516Z,12.20
2018-12-05T16:27:22.825Z,12.20
2018-12-05T16:30:08.226Z,12.20
2018-12-05T16:40:50.846Z,12.10
2018-12-05T16:46:03.028Z,12.20
2018-12-05T17:07:18.865Z,12.30
2018-12-05T18:03:51.456Z,12.10
2018-12-05T18:09:29.367Z,12.10
2018-12-05T18:12:00.770Z,12.00
2018-12-05T18:18:35.698Z,11.90
2018-12-05T18:23:56.879Z,11.90
2018-12-05T18:32:05.975Z,11.80
2018-12-05T18:34:39.927Z,11.70
2018-12-05T18:37:25.850Z,11.70
2018-12-05T18:45:31.466Z,11.60
2018-12-05T18:50:52.295Z,11.70
2018-12-05T18:53:24.973Z,11.60
2018-12-05T18:56:06.860Z,11.70
2018-12-05T19:01:38.831Z,11.60
2018-12-05T19:04:27.685Z,11.60
2018-12-05T19:15:40.008Z,11.70
2018-12-05T19:18:16.623Z,11.70
2018-12-05T19:43:22.635Z,11.50
2018-12-05T19:46:05.039Z,11.40
2018-12-05T19:51:46.741Z,11.50
2018-12-05T20:07:09.910Z,11.00
2018-12-05T20:09:49.462Z,11.00
2018-12-05T20:12:33.196Z,11.00
2018-12-05T20:17:59.811Z,11.00
2018-12-05T20:59:45.750Z,11.20
2018-12-05T22:43:35.799Z,10.90
2018-12-05T22:46:27.240Z,10.90
2018-12-05T22:57:40.389Z,10.90
2018-12-05T23:22:22.739Z,11.10
2018-12-05T23:27:48.424Z,11.20
2018-12-05T23:33:08.478Z,11.20
2018-12-05T23:38:46.237Z,11.20
2018-12-05T23:41:33.414Z,11.10
2018-12-05T23:49:59.025Z,11.10
